createdAt,value
2022-11-29T00:00:03.147Z,6.50
2022-11-29T00:02:46.069Z,6.50
2022-11-29T00:05:18.776Z,6.50
2022-11-29T00:07:51.361Z,6.50
2022-11-29T00:10:23.993Z,6.50
2022-11-29T00:12:56.545Z,6.50
2022-11-29T00:15:29.538Z,6.40
2022-11-29T00:18:02.237Z,6.40
2022-11-29T00:20:35.737Z,6.50
2022-11-29T00:23:08.355Z,6.50
2022-11-29T00:25:40.893Z,6.50
2022-11-29T00:28:13.452Z,6.50
2022-11-29T00:30:46.038Z,6.50
2022-11-29T00:33:18.560Z,6.50
2022-11-29T00:35:51.453Z,6.50
2022-11-29T00:38:24.110Z,6.50
2022-11-29T00:40:56.651Z,6.50
2022-11-29T00:43:29.293Z,6.50
2022-11-29T00:46:02.840Z,6.50
2022-11-29T00:48:35.863Z,6.50
2022-11-29T00:51:08.680Z,6.40
2022-11-29T00:53:41.526Z,6.50
2022-11-29T00:56:14.200Z,6.50
2022-11-29T00:58:48.946Z,6.50
2022-11-29T01:01:21.482Z,6.50
2022-11-29T01:03:54.126Z,6.50
2022-11-29T01:06:26.791Z,6.50
2022-11-29T01:08:59.385Z,6.50
2022-11-29T01:11:32.209Z,6.50
2022-11-29T01:14:04.794Z,6.50
2022-11-29T01:16:37.372Z,6.50
2022-11-29T01:19:09.952Z,6.50
2022-11-29T01:21:42.648Z,6.50
2022-11-29T01:24:15.254Z,6.50
2022-11-29T01:26:47.997Z,6.50
2022-11-29T01:29:21.590Z,6.50
2022-11-29T01:31:54.434Z,6.50
2022-11-29T01:34:27.039Z,6.50
2022-11-29T01:36:59.606Z,6.50
2022-11-29T01:39:32.372Z,6.50
2022-11-29T01:42:05.458Z,6.50
2022-11-29T01:44:38.731Z,6.50
2022-11-29T01:47:12.322Z,6.50
2022-11-29T01:49:47.191Z,6.50
2022-11-29T01:52:26.147Z,6.50
2022-11-29T01:55:03.451Z,6.50
2022-11-29T01:57:39.590Z,6.50
2022-11-29T02:00:16.306Z,6.50
2022-11-29T02:02:57.642Z,6.40
2022-11-29T02:05:30.413Z,6.40
2022-11-29T02:08:03.354Z,6.50
2022-11-29T02:10:44.163Z,6.40
2022-11-29T02:13:32.933Z,6.40
2022-11-29T02:16:20.631Z,6.40
2022-11-29T02:19:19.145Z,6.40
2022-11-29T02:22:06.015Z,6.40
2022-11-29T02:24:39.271Z,6.40
2022-11-29T02:27:22.073Z,6.30
2022-11-29T02:30:17.259Z,6.30
2022-11-29T02:33:08.644Z,6.30
2022-11-29T02:36:00.224Z,6.30
2022-11-29T02:38:43.913Z,6.30
2022-11-29T02:41:37.534Z,6.30
2022-11-29T02:44:27.213Z,6.30
2022-11-29T02:47:15.288Z,6.30
2022-11-29T02:49:59.404Z,6.30
2022-11-29T02:52:46.396Z,6.30
2022-11-29T02:55:39.723Z,6.20
2022-11-29T02:58:29.347Z,6.20
2022-11-29T03:01:15.869Z,6.20
2022-11-29T03:04:07.261Z,6.20
2022-11-29T03:06:40.435Z,6.20
2022-11-29T03:09:35.099Z,6.20
2022-11-29T03:12:14.416Z,6.20
2022-11-29T03:14:48.817Z,6.10
2022-11-29T03:17:36.754Z,6.20
2022-11-29T03:20:36.096Z,6.20
2022-11-29T03:23:23.398Z,6.10
2022-11-29T03:26:05.161Z,6.20
2022-11-29T03:28:39.857Z,6.20
2022-11-29T03:31:33.329Z,6.10
2022-11-29T03:34:19.130Z,6.20
2022-11-29T03:37:22.782Z,6.20
2022-11-29T03:40:09.087Z,6.20
2022-11-29T03:42:54.230Z,6.20
2022-11-29T03:45:53.730Z,6.20
2022-11-29T03:48:33.600Z,6.30
2022-11-29T03:51:21.621Z,6.20
2022-11-29T03:54:01.761Z,6.30
2022-11-29T03:56:37.297Z,6.30
2022-11-29T03:59:14.763Z,6.30
2022-11-29T04:02:12.744Z,6.30
2022-11-29T04:05:00.938Z,6.30
2022-11-29T04:07:57.036Z,6.30
2022-11-29T04:10:47.772Z,6.30
2022-11-29T04:13:43.713Z,6.20
2022-11-29T04:16:20.036Z,6.30
2022-11-29T04:19:09.562Z,6.30
2022-11-29T04:21:59.299Z,6.30
2022-11-29T04:24:41.933Z,6.30
2022-11-29T04:27:26.784Z,6.30
2022-11-29T04:30:15.114Z,6.30
2022-11-29T04:33:02.094Z,6.20
2022-11-29T04:35:55.808Z,6.30
2022-11-29T04:38:33.120Z,6.30
2022-11-29T04:41:14.978Z,6.30
2022-11-29T04:44:08.444Z,6.30
2022-11-29T04:46:57.709Z,6.30
2022-11-29T04:49:47.096Z,6.30
2022-11-29T04:52:38.994Z,6.30
2022-11-29T04:55:31.049Z,6.30
2022-11-29T04:58:19.766Z,6.30
2022-11-29T05:01:07.822Z,6.30
2022-11-29T05:03:56.843Z,6.30
2022-11-29T05:06:42.725Z,6.30
2022-11-29T05:09:28.488Z,6.30
2022-11-29T05:12:14.517Z,6.30
2022-11-29T05:15:14.824Z,6.40
2022-11-29T05:18:18.467Z,6.30
2022-11-29T05:21:04.828Z,6.40
2022-11-29T05:23:49.183Z,6.40
2022-11-29T05:26:42.167Z,6.40
2022-11-29T05:29:34.322Z,6.40
2022-11-29T05:32:24.654Z,6.40
2022-11-29T05:35:28.246Z,6.30
2022-11-29T05:38:31.969Z,6.30
2022-11-29T05:41:31.540Z,6.30
2022-11-29T05:44:30.396Z,6.30
2022-11-29T05:47:06.916Z,6.40
2022-11-29T05:49:52.129Z,6.40
2022-11-29T05:52:37.345Z,6.40
2022-11-29T05:55:26.885Z,6.40
2022-11-29T05:58:13.064Z,6.40
2022-11-29T06:00:59.885Z,6.40
2022-11-29T06:03:50.594Z,6.40
2022-11-29T06:06:42.281Z,6.40
2022-11-29T06:09:19.432Z,6.40
2022-11-29T06:11:59.148Z,6.40
2022-11-29T06:14:55.579Z,6.50
2022-11-29T06:17:59.397Z,6.40
2022-11-29T06:20:46.721Z,6.50
2022-11-29T06:23:50.731Z,6.40
2022-11-29T06:26:47.171Z,6.40
2022-11-29T06:29:47.708Z,6.40
2022-11-29T06:32:34.534Z,6.40
2022-11-29T06:35:19.208Z,6.40
2022-11-29T06:37:56.124Z,6.40
2022-11-29T06:40:29.159Z,6.40
2022-11-29T06:43:02.158Z,6.40
2022-11-29T06:45:35.082Z,6.40
2022-11-29T06:48:12.759Z,6.40
2022-11-29T06:51:08.431Z,6.40
2022-11-29T06:53:57.631Z,6.40
2022-11-29T06:56:51.571Z,6.40
2022-11-29T06:59:35.701Z,6.40
2022-11-29T07:02:39.341Z,6.30
2022-11-29T07:05:29.268Z,6.30
2022-11-29T07:08:06.303Z,6.30
2022-11-29T07:10:41.523Z,6.30
2022-11-29T07:13:14.259Z,6.30
2022-11-29T07:16:06.586Z,6.30
2022-11-29T07:19:00.185Z,6.30
2022-11-29T07:22:00.537Z,6.30
2022-11-29T07:24:43.089Z,6.30
2022-11-29T07:27:21.335Z,6.30
2022-11-29T07:30:19.230Z,6.30
2022-11-29T07:33:00.536Z,6.30
2022-11-29T07:35:49.756Z,6.30
2022-11-29T07:38:38.655Z,6.30
2022-11-29T07:41:38.241Z,6.30
2022-11-29T07:44:17.418Z,6.30
2022-11-29T07:46:50.092Z,6.30
2022-11-29T07:49:22.897Z,6.30
2022-11-29T07:51:56.212Z,6.40
2022-11-29T07:54:29.112Z,6.30
2022-11-29T07:57:02.063Z,6.30
2022-11-29T07:59:35.052Z,6.40
2022-11-29T08:02:11.712Z,6.30
2022-11-29T08:04:45.324Z,6.30
2022-11-29T08:07:18.175Z,6.30
2022-11-29T08:09:50.932Z,6.30
2022-11-29T08:12:23.672Z,6.30
2022-11-29T08:14:56.254Z,6.30
2022-11-29T08:17:29.032Z,6.30
2022-11-29T08:20:04.263Z,6.30
2022-11-29T08:22:37.479Z,6.30
2022-11-29T08:25:10.817Z,6.30
2022-11-29T08:27:43.299Z,6.30
2022-11-29T08:30:19.110Z,6.30
2022-11-29T08:32:52.926Z,6.30
2022-11-29T08:35:26.284Z,6.30
2022-11-29T08:37:58.979Z,6.30
2022-11-29T08:40:31.666Z,6.40
2022-11-29T08:43:04.455Z,6.40
2022-11-29T08:45:37.144Z,6.30
2022-11-29T08:48:09.836Z,6.30
2022-11-29T08:50:42.401Z,6.30
2022-11-29T08:53:31.381Z,6.30
2022-11-29T08:56:23.575Z,6.30
2022-11-29T08:58:57.477Z,6.30
2022-11-29T09:01:30.359Z,6.30
2022-11-29T09:04:03.800Z,6.40
2022-11-29T09:06:40.738Z,6.40
2022-11-29T09:09:13.484Z,6.40
2022-11-29T09:11:49.438Z,6.40
2022-11-29T09:14:23.280Z,6.50
2022-11-29T09:16:56.153Z,6.50
2022-11-29T09:19:28.991Z,6.50
2022-11-29T09:22:01.697Z,6.50
2022-11-29T09:24:34.924Z,6.50
2022-11-29T09:27:07.755Z,6.50
2022-11-29T09:29:40.417Z,6.50
2022-11-29T09:32:12.997Z,6.00
2022-11-29T09:34:46.015Z,6.40
2022-11-29T09:37:19.072Z,6.30
2022-11-29T09:39:51.697Z,6.30
2022-11-29T09:42:47.844Z,6.30
2022-11-29T09:45:27.922Z,6.30
2022-11-29T09:48:20.236Z,6.40
2022-11-29T09:51:09.026Z,6.40
2022-11-29T09:54:03.343Z,6.40
2022-11-29T09:56:42.918Z,6.40
2022-11-29T09:59:37.894Z,6.40
2022-11-29T10:02:19.722Z,6.40
2022-11-29T10:05:03.084Z,6.50
2022-11-29T10:07:44.346Z,6.40
2022-11-29T10:10:26.699Z,6.40
2022-11-29T10:13:07.851Z,6.40
2022-11-29T10:15:44.329Z,6.40
2022-11-29T10:18:27.739Z,6.40
2022-11-29T10:21:10.027Z,6.40
2022-11-29T10:23:48.525Z,6.40
2022-11-29T10:26:23.222Z,6.30
2022-11-29T10:28:58.010Z,6.30
2022-11-29T10:31:40.382Z,6.30
2022-11-29T10:34:18.466Z,6.30
2022-11-29T10:36:54.954Z,6.30
2022-11-29T10:39:44.895Z,6.30
2022-11-29T10:42:36.885Z,6.30
2022-11-29T10:45:34.538Z,6.40
2022-11-29T10:48:11.898Z,6.70
2022-11-29T10:50:48.773Z,6.50
2022-11-29T10:53:36.198Z,6.60
2022-11-29T10:56:27.793Z,6.60
2022-11-29T10:59:05.791Z,6.60
2022-11-29T11:01:43.916Z,6.60
2022-11-29T11:04:36.855Z,6.60
2022-11-29T11:07:29.036Z,6.50
2022-11-29T11:10:18.460Z,6.60
2022-11-29T11:13:18.828Z,6.60
2022-11-29T11:16:13.049Z,6.60
2022-11-29T11:18:48.172Z,6.60
2022-11-29T11:21:23.506Z,6.60
2022-11-29T11:23:58.867Z,6.50
2022-11-29T11:26:46.833Z,6.50
2022-11-29T11:29:22.861Z,6.60
2022-11-29T11:31:59.238Z,6.60
2022-11-29T11:34:37.770Z,6.70
2022-11-29T11:37:16.677Z,6.70
2022-11-29T11:39:53.847Z,6.70
2022-11-29T11:42:39.038Z,6.80
2022-11-29T11:45:14.481Z,6.80
2022-11-29T11:47:52.743Z,6.80
2022-11-29T11:50:30.138Z,6.80
2022-11-29T11:53:08.435Z,6.80
2022-11-29T11:55:46.860Z,6.90
2022-11-29T11:58:25.825Z,6.90
2022-11-29T12:01:16.571Z,6.90
2022-11-29T12:04:10.529Z,7.00
2022-11-29T12:07:00.616Z,6.90
2022-11-29T12:09:36.379Z,7.00
2022-11-29T12:12:18.281Z,7.00
2022-11-29T12:15:01.243Z,7.00
2022-11-29T12:17:37.607Z,7.00
2022-11-29T12:20:16.317Z,7.00
2022-11-29T12:23:04.607Z,7.00
2022-11-29T12:25:56.330Z,7.00
2022-11-29T12:28:33.968Z,7.00
2022-11-29T12:31:15.514Z,7.00
2022-11-29T12:33:55.601Z,7.00
2022-11-29T12:36:31.108Z,7.00
2022-11-29T12:39:26.543Z,7.00
2022-11-29T12:42:26.861Z,7.00
2022-11-29T12:45:06.139Z,7.00
2022-11-29T12:47:43.722Z,7.00
2022-11-29T12:50:50.110Z,6.90
2022-11-29T12:53:47.393Z,6.90
2022-11-29T12:56:35.167Z,6.90
2022-11-29T12:59:16.302Z,6.90
2022-11-29T13:01:59.897Z,6.90
2022-11-29T13:04:46.028Z,6.90
2022-11-29T13:07:51.047Z,6.90
2022-11-29T13:10:42.932Z,6.90
2022-11-29T13:13:35.546Z,6.90
2022-11-29T13:16:25.072Z,6.90
2022-11-29T13:19:31.507Z,6.90
2022-11-29T13:22:23.701Z,6.90
2022-11-29T13:25:15.963Z,6.80
2022-11-29T13:28:02.895Z,6.80
2022-11-29T13:30:40.010Z,6.80
2022-11-29T13:33:32.413Z,6.80
2022-11-29T13:36:12.810Z,6.80
2022-11-29T13:38:55.912Z,6.80
2022-11-29T13:41:37.850Z,6.80
2022-11-29T13:44:24.894Z,6.80
2022-11-29T13:47:20.673Z,6.80
2022-11-29T13:50:05.747Z,6.80
2022-11-29T13:52:46.838Z,6.80
2022-11-29T13:55:29.746Z,6.80
2022-11-29T13:58:21.124Z,6.70
2022-11-29T14:00:55.282Z,6.80
2022-11-29T14:03:45.659Z,6.80
2022-11-29T14:06:22.248Z,6.80
2022-11-29T14:09:18.984Z,6.80
2022-11-29T14:12:17.608Z,6.80
2022-11-29T14:14:57.424Z,6.80
2022-11-29T14:17:36.158Z,6.80
2022-11-29T14:20:25.438Z,6.80
2022-11-29T14:23:08.016Z,6.80
2022-11-29T14:26:03.528Z,6.80
2022-11-29T14:28:39.539Z,6.80
2022-11-29T14:31:32.246Z,6.80
2022-11-29T14:34:14.360Z,6.80
2022-11-29T14:36:55.345Z,6.80
2022-11-29T14:39:47.420Z,6.80
2022-11-29T14:42:23.616Z,6.70
2022-11-29T14:45:01.614Z,6.80
2022-11-29T14:47:39.223Z,6.80
2022-11-29T14:50:31.535Z,6.80
2022-11-29T14:53:07.793Z,6.80
2022-11-29T14:55:43.218Z,6.80
2022-11-29T14:58:19.933Z,6.80
2022-11-29T15:01:08.131Z,6.80
2022-11-29T15:03:48.951Z,6.80
2022-11-29T15:06:28.247Z,6.70
2022-11-29T15:09:07.681Z,6.70
2022-11-29T15:11:59.321Z,6.70
2022-11-29T15:14:50.351Z,6.70
2022-11-29T15:17:32.438Z,6.70
2022-11-29T15:20:27.960Z,6.70
2022-11-29T15:23:04.704Z,6.70
2022-11-29T15:25:52.770Z,6.60
2022-11-29T15:28:28.200Z,6.70
2022-11-29T15:31:08.665Z,6.60
2022-11-29T15:33:45.415Z,6.60
2022-11-29T15:36:22.138Z,6.60
2022-11-29T15:38:59.527Z,6.60
2022-11-29T15:41:35.801Z,6.60
2022-11-29T15:44:22.389Z,6.60
2022-11-29T15:46:55.428Z,6.70
2022-11-29T15:49:30.990Z,6.70
2022-11-29T15:52:16.981Z,6.60
2022-11-29T15:55:00.515Z,6.60
2022-11-29T15:57:42.367Z,6.60
2022-11-29T16:00:20.816Z,6.60
2022-11-29T16:03:01.767Z,6.60
2022-11-29T16:05:37.698Z,6.60
2022-11-29T16:08:19.975Z,6.60
2022-11-29T16:10:53.663Z,6.60
2022-11-29T16:13:44.095Z,6.60
2022-11-29T16:16:24.010Z,6.60
2022-11-29T16:19:20.392Z,6.60
2022-11-29T16:22:09.806Z,6.60
2022-11-29T16:25:01.955Z,6.60
2022-11-29T16:27:36.766Z,6.60
2022-11-29T16:30:23.004Z,6.60
2022-11-29T16:32:59.675Z,6.60
2022-11-29T16:35:36.281Z,6.60
2022-11-29T16:38:21.117Z,6.60
2022-11-29T16:41:22.037Z,6.50
2022-11-29T16:43:57.748Z,6.50
2022-11-29T16:46:34.793Z,6.60
2022-11-29T16:49:38.075Z,6.50
2022-11-29T16:52:28.000Z,6.60
2022-11-29T16:55:02.124Z,6.50
2022-11-29T16:57:38.723Z,6.50
2022-11-29T17:00:28.819Z,6.50
2022-11-29T17:03:01.945Z,6.50
2022-11-29T17:05:43.152Z,6.50
2022-11-29T17:08:17.589Z,6.50
2022-11-29T17:10:50.103Z,6.50
2022-11-29T17:13:23.692Z,6.60
2022-11-29T17:15:57.932Z,6.60
2022-11-29T17:18:30.777Z,6.50
2022-11-29T17:21:05.340Z,6.60
2022-11-29T17:23:38.386Z,6.50
2022-11-29T17:26:10.949Z,6.50
2022-11-29T17:28:45.498Z,6.50
2022-11-29T17:31:22.251Z,6.50
2022-11-29T17:33:55.162Z,6.60
2022-11-29T17:36:28.111Z,6.50
2022-11-29T17:39:01.640Z,6.50
2022-11-29T17:41:37.982Z,6.50
2022-11-29T17:44:12.221Z,6.50
2022-11-29T17:46:44.779Z,6.50
2022-11-29T17:49:18.948Z,6.60
2022-11-29T17:51:53.110Z,6.50
2022-11-29T17:54:26.760Z,6.50
2022-11-29T17:57:01.101Z,6.60
2022-11-29T17:59:34.028Z,6.60
2022-11-29T18:02:06.697Z,6.50
2022-11-29T18:04:42.760Z,6.50
2022-11-29T18:07:17.639Z,6.50
2022-11-29T18:09:50.945Z,6.50
2022-11-29T18:12:24.538Z,6.60
2022-11-29T18:14:57.126Z,6.50
2022-11-29T18:17:29.889Z,6.50
2022-11-29T18:20:02.533Z,6.60
2022-11-29T18:22:35.369Z,6.60
2022-11-29T18:25:37.018Z,6.50
2022-11-29T18:28:02.462Z,6.60
2022-11-29T18:30:35.895Z,6.50
2022-11-29T18:33:08.537Z,6.50
2022-11-29T18:35:41.168Z,6.50
2022-11-29T18:38:15.587Z,6.50
2022-11-29T18:40:50.399Z,6.50
2022-11-29T18:43:23.615Z,6.50
2022-11-29T18:45:56.211Z,6.50
2022-11-29T18:48:30.774Z,6.50
2022-11-29T18:51:05.454Z,6.50
2022-11-29T18:53:39.611Z,6.50
2022-11-29T18:56:15.954Z,6.50
2022-11-29T18:58:58.145Z,6.50
2022-11-29T19:01:34.668Z,6.50
2022-11-29T19:04:09.693Z,6.50
2022-11-29T19:06:42.772Z,6.50
2022-11-29T19:09:21.112Z,6.50
2022-11-29T19:11:54.135Z,6.50
2022-11-29T19:14:26.713Z,6.50
2022-11-29T19:16:59.806Z,6.50
2022-11-29T19:19:32.455Z,6.60
2022-11-29T19:22:05.318Z,6.50
2022-11-29T19:24:38.327Z,6.50
2022-11-29T19:27:10.873Z,6.50
2022-11-29T19:29:43.399Z,6.50
2022-11-29T19:32:15.931Z,6.50
2022-11-29T19:34:49.473Z,6.50
2022-11-29T19:37:22.117Z,6.50
2022-11-29T19:39:54.626Z,6.50
2022-11-29T19:42:27.120Z,6.60
2022-11-29T19:47:53.164Z,6.60
2022-11-29T19:50:26.001Z,6.60
2022-11-29T19:52:59.635Z,6.60
2022-11-29T19:55:33.983Z,6.60
2022-11-29T19:58:06.707Z,6.60
2022-11-29T20:00:39.238Z,6.60
2022-11-29T20:03:12.381Z,6.60
2022-11-29T20:05:54.741Z,6.60
2022-11-29T20:08:27.741Z,6.60
2022-11-29T20:11:10.747Z,6.60
2022-11-29T20:13:45.768Z,6.60
2022-11-29T20:16:19.645Z,6.60
2022-11-29T20:18:53.164Z,6.70
2022-11-29T20:21:28.961Z,6.60
2022-11-29T20:24:04.618Z,6.60
2022-11-29T20:26:40.439Z,6.60
2022-11-29T20:29:13.879Z,6.60
2022-11-29T20:31:51.035Z,6.60
2022-11-29T20:34:24.726Z,6.60
2022-11-29T20:37:20.037Z,6.60
2022-11-29T20:40:11.311Z,6.60
2022-11-29T20:42:46.662Z,6.60
2022-11-29T20:45:20.383Z,6.50
2022-11-29T20:47:59.649Z,6.60
2022-11-29T20:50:33.075Z,6.60
2022-11-29T20:53:23.895Z,6.50
2022-11-29T20:55:56.644Z,6.50
2022-11-29T20:58:29.464Z,6.50
2022-11-29T21:01:03.768Z,6.50
2022-11-29T21:03:36.611Z,6.50
2022-11-29T21:06:09.425Z,6.50
2022-11-29T21:08:43.109Z,6.50
2022-11-29T21:11:16.313Z,6.40
2022-11-29T21:13:50.076Z,6.40
2022-11-29T21:16:31.902Z,6.40
2022-11-29T21:19:04.994Z,6.40
2022-11-29T21:21:47.602Z,6.40
2022-11-29T21:24:43.268Z,6.40
2022-11-29T21:27:21.277Z,6.40
2022-11-29T21:29:55.008Z,6.30
2022-11-29T21:32:28.565Z,6.30
2022-11-29T21:35:01.134Z,6.30
2022-11-29T21:37:33.695Z,6.30
2022-11-29T21:40:07.872Z,6.20
2022-11-29T21:42:40.955Z,6.20
2022-11-29T21:45:15.615Z,6.20
2022-11-29T21:47:48.803Z,6.20
2022-11-29T21:50:22.714Z,6.20
2022-11-29T21:52:55.308Z,6.10
2022-11-29T21:55:32.025Z,6.10
2022-11-29T21:58:05.228Z,6.00
2022-11-29T22:00:37.912Z,6.00
2022-11-29T22:03:10.573Z,6.10
2022-11-29T22:05:43.107Z,6.00
2022-11-29T22:08:15.947Z,6.00
2022-11-29T22:10:48.459Z,5.90
2022-11-29T22:13:21.166Z,5.90
2022-11-29T22:15:53.706Z,5.90
2022-11-29T22:18:28.798Z,5.90
2022-11-29T22:21:05.379Z,5.90
2022-11-29T22:23:37.980Z,5.90
2022-11-29T22:26:10.510Z,5.90
2022-11-29T22:28:43.047Z,5.90
2022-11-29T22:31:15.575Z,5.90
2022-11-29T22:33:48.140Z,5.90
2022-11-29T22:36:20.644Z,5.80
2022-11-29T22:38:53.218Z,5.80
2022-11-29T22:41:25.984Z,5.80
2022-11-29T22:43:58.879Z,5.80
2022-11-29T22:46:32.181Z,5.70
2022-11-29T22:49:04.809Z,5.70
2022-11-29T22:51:39.337Z,5.70
2022-11-29T22:54:15.607Z,5.70
2022-11-29T22:56:48.327Z,5.70
2022-11-29T22:59:20.899Z,5.70
2022-11-29T23:01:53.392Z,5.70
2022-11-29T23:04:26.243Z,5.60
2022-11-29T23:06:58.890Z,5.60
2022-11-29T23:09:31.496Z,5.60
2022-11-29T23:12:04.324Z,5.60
2022-11-29T23:14:36.891Z,5.70
2022-11-29T23:17:09.389Z,5.70
2022-11-29T23:19:42.439Z,5.70
2022-11-29T23:22:16.247Z,5.70
2022-11-29T23:24:48.918Z,5.70
2022-11-29T23:27:21.590Z,5.70
2022-11-29T23:29:54.418Z,5.70
2022-11-29T23:32:27.095Z,5.70
2022-11-29T23:34:59.733Z,5.80
2022-11-29T23:37:32.275Z,5.80
2022-11-29T23:40:06.012Z,5.80
2022-11-29T23:42:39.738Z,5.80
2022-11-29T23:45:13.998Z,5.80
2022-11-29T23:47:46.518Z,5.80
2022-11-29T23:50:19.118Z,5.80
2022-11-29T23:52:54.997Z,5.80
2022-11-29T23:55:28.066Z,5.90
2022-11-29T23:58:01.637Z,5.80
